Terminal Aerodrome Forecast
Issued by NWS Caribou, ME

Home | Current Version | Previous Version | Text Only | Print | Product List | Glossary On
Versions: 1 2 3 4 5 6 7 8 9 10 11 12 13 14
764
FTUS41 KCAR 262327
TAFBGR
TAF
KBGR 262327Z 2700/2724 19007KT P6SM SCT150
     FM271100 20006KT P6SM OVC008
     FM271800 20010KT P6SM VCSH BKN008
     FM272000 20009KT P6SM VCSH BKN010=

USA.gov is the U.S. government's official web portal to all federal, state and local government web resources and services.